createdAt,value
2023-03-24T00:04:59.633Z,100.00
2023-03-24T00:12:38.424Z,100.00
2023-03-24T00:20:16.441Z,100.00
2023-03-24T00:27:52.231Z,100.00
2023-03-24T00:35:26.576Z,100.00
2023-03-24T00:43:01.909Z,100.00
2023-03-24T00:50:35.794Z,100.00
2023-03-24T00:58:11.062Z,100.00
2023-03-24T01:05:48.345Z,100.00
2023-03-24T01:13:25.952Z,100.00
2023-03-24T01:21:01.269Z,100.00
2023-03-24T01:28:40.728Z,100.00
2023-03-24T01:36:14.721Z,100.00
2023-03-24T01:43:50.028Z,100.00
2023-03-24T01:51:27.111Z,100.00
2023-03-24T01:59:07.283Z,100.00
2023-03-24T02:06:44.758Z,100.00
2023-03-24T02:14:20.346Z,100.00
2023-03-24T02:22:26.232Z,100.00
2023-03-24T02:30:22.754Z,100.00
2023-03-24T02:38:24.896Z,100.00
2023-03-24T02:46:14.348Z,100.00
2023-03-24T02:53:56.735Z,100.00
2023-03-24T03:01:37.961Z,100.00
2023-03-24T03:09:16.390Z,100.00
2023-03-24T03:16:59.998Z,100.00
2023-03-24T03:24:39.292Z,100.00
2023-03-24T03:32:19.657Z,100.00
2023-03-24T03:39:57.652Z,100.00
2023-03-24T03:47:34.567Z,100.00
2023-03-24T03:55:11.613Z,100.00
2023-03-24T04:03:05.515Z,100.00
2023-03-24T04:10:56.886Z,100.00
2023-03-24T04:18:48.301Z,100.00
2023-03-24T04:26:29.275Z,100.00
2023-03-24T04:34:09.613Z,100.00
2023-03-24T04:41:45.094Z,100.00
2023-03-24T04:49:20.520Z,100.00
2023-03-24T04:56:56.360Z,100.00
2023-03-24T05:04:37.346Z,100.00
2023-03-24T05:12:13.110Z,100.00
2023-03-24T05:19:48.560Z,100.00
2023-03-24T05:27:22.531Z,100.00
2023-03-24T05:34:57.906Z,100.00
2023-03-24T05:42:31.804Z,100.00
2023-03-24T05:50:08.357Z,100.00
2023-03-24T05:57:43.680Z,100.00
2023-03-24T06:05:20.303Z,100.00
2023-03-24T06:12:54.530Z,100.00
2023-03-24T06:20:30.218Z,100.00
2023-03-24T06:28:04.448Z,100.00
2023-03-24T06:35:40.010Z,100.00
2023-03-24T06:43:14.085Z,100.00
2023-03-24T06:50:49.789Z,100.00
2023-03-24T06:58:23.847Z,100.00
2023-03-24T07:06:00.946Z,100.00
2023-03-24T07:13:35.261Z,100.00
2023-03-24T07:21:10.525Z,100.00
2023-03-24T07:28:44.353Z,100.00
2023-03-24T07:36:19.762Z,100.00
2023-03-24T07:43:54.122Z,100.00
2023-03-24T07:51:29.912Z,100.00
2023-03-24T07:59:04.006Z,100.00
2023-03-24T08:06:40.260Z,100.00
2023-03-24T08:14:14.685Z,100.00
2023-03-24T08:21:50.060Z,100.00
2023-03-24T08:29:24.122Z,100.00
2023-03-24T08:36:59.641Z,100.00
2023-03-24T08:44:33.733Z,100.00
2023-03-24T08:52:09.595Z,100.00
2023-03-24T08:59:43.636Z,100.00
2023-03-24T09:07:19.112Z,100.00
2023-03-24T09:14:53.121Z,100.00
2023-03-24T09:22:28.582Z,100.00
2023-03-24T09:30:02.711Z,100.00
2023-03-24T09:37:39.728Z,100.00
2023-03-24T09:45:17.940Z,100.00
2023-03-24T09:52:56.459Z,100.00
2023-03-24T10:00:33.308Z,100.00
2023-03-24T10:08:15.827Z,100.00
2023-03-24T10:15:56.717Z,100.00
2023-03-24T10:23:37.921Z,100.00
2023-03-24T10:31:14.927Z,100.00
2023-03-24T10:38:50.638Z,100.00
2023-03-24T10:46:28.289Z,100.00
2023-03-24T10:54:15.491Z,100.00
2023-03-24T11:01:52.621Z,100.00
2023-03-24T11:17:23.353Z,92.86
2023-03-24T11:24:58.887Z,89.69
2023-03-24T11:32:32.956Z,86.64
2023-03-24T11:40:22.585Z,86.37
2023-03-24T11:47:58.710Z,82.41
2023-03-24T11:55:37.754Z,84.26
2023-03-24T12:03:51.406Z,81.81
2023-03-24T12:11:40.878Z,82.70
2023-03-24T12:19:38.577Z,83.54
2023-03-24T12:27:26.490Z,82.08
2023-03-24T12:35:26.896Z,82.74
2023-03-24T12:43:13.699Z,84.36
2023-03-24T12:51:00.021Z,78.00
2023-03-24T12:58:43.017Z,75.50
2023-03-24T13:06:24.128Z,76.56
2023-03-24T13:14:01.454Z,75.89
2023-03-24T13:21:35.502Z,75.92
2023-03-24T13:29:23.563Z,74.38
2023-03-24T13:37:03.804Z,75.57
2023-03-24T13:44:44.295Z,72.88
2023-03-24T13:52:33.798Z,70.25
2023-03-24T14:00:22.208Z,64.46
2023-03-24T14:08:43.746Z,62.33
2023-03-24T14:16:44.354Z,61.53
2023-03-24T14:24:24.896Z,61.67
2023-03-24T14:32:17.056Z,63.27
2023-03-24T14:39:57.456Z,63.46
2023-03-24T14:47:34.825Z,61.92
2023-03-24T14:55:13.481Z,62.38
2023-03-24T15:02:59.524Z,59.13
2023-03-24T15:10:38.246Z,57.77
2023-03-24T15:18:18.270Z,57.50
2023-03-24T15:25:54.469Z,55.78
2023-03-24T15:33:31.520Z,54.29
2023-03-24T15:41:09.242Z,54.23
2023-03-24T15:48:48.174Z,54.27
2023-03-24T15:56:27.198Z,53.96
2023-03-24T16:04:05.931Z,54.74
2023-03-24T16:11:39.972Z,54.25
2023-03-24T16:19:15.676Z,55.65
2023-03-24T16:26:50.071Z,57.19
2023-03-24T16:34:25.532Z,57.80
2023-03-24T16:41:59.596Z,59.71
2023-03-24T16:49:35.252Z,59.24
2023-03-24T16:57:09.326Z,60.24
2023-03-24T17:04:45.192Z,60.86
2023-03-24T17:12:19.210Z,62.46
2023-03-24T17:19:54.589Z,62.97
2023-03-24T17:27:28.536Z,65.47
2023-03-24T17:35:04.599Z,67.46
2023-03-24T17:42:40.373Z,69.47
2023-03-24T17:50:16.184Z,70.79
2023-03-24T17:57:50.098Z,72.82
2023-03-24T18:05:26.044Z,74.22
2023-03-24T18:13:01.510Z,76.31
2023-03-24T18:20:39.229Z,77.75
2023-03-24T18:28:13.137Z,78.89
2023-03-24T18:35:53.016Z,80.28
2023-03-24T18:43:27.871Z,81.71
2023-03-24T18:58:54.767Z,83.85
2023-03-24T19:06:32.089Z,83.59
2023-03-24T19:14:07.204Z,83.57
2023-03-24T19:21:43.017Z,81.96
2023-03-24T19:29:17.051Z,80.79
2023-03-24T19:36:52.417Z,81.85
2023-03-24T19:52:19.039Z,87.50
2023-03-24T19:59:52.965Z,87.69
2023-03-24T20:07:28.385Z,89.89
2023-03-24T20:15:02.894Z,90.14
2023-03-24T20:22:42.220Z,88.62
2023-03-24T20:30:17.876Z,89.01
2023-03-24T20:37:53.326Z,90.01
2023-03-24T20:53:20.249Z,92.14
2023-03-24T21:00:54.388Z,93.25
2023-03-24T21:16:21.220Z,94.33
2023-03-24T21:23:57.701Z,95.93
2023-03-24T21:31:31.871Z,97.65
2023-03-24T21:39:09.357Z,97.98
2023-03-24T21:46:45.136Z,98.18
2023-03-24T21:54:21.032Z,98.77
2023-03-24T22:01:55.040Z,98.27
2023-03-24T22:09:30.579Z,98.70
2023-03-24T22:17:05.109Z,99.48
2023-03-24T22:24:41.331Z,100.00
2023-03-24T22:32:15.704Z,100.00
2023-03-24T22:39:51.108Z,100.00
2023-03-24T22:47:25.038Z,100.00
2023-03-24T22:55:01.272Z,100.00
2023-03-24T23:02:35.535Z,100.00
2023-03-24T23:10:12.987Z,100.00
2023-03-24T23:17:47.180Z,100.00
2023-03-24T23:33:15.176Z,100.00
2023-03-24T23:40:50.794Z,100.00
2023-03-24T23:48:24.753Z,100.00
2023-03-24T23:56:02.035Z,100.00
